Terminal Aerodrome Forecast
Issued by NWS

Home | Current Version | Previous Version | Text Only | Print | Product List | Glossary On
Versions: 1 2 3 4 5 6 7 8 9 10 11 12 13 14 15 16 17 18 19 20 21 22 23 24 25 26 27 28 29 30
000
FTUS41 KPBZ 240520
TAFFKL
TAF
KFKL 240520Z 2406/2506 14003KT P6SM BKN150
     FM241200 17008KT P6SM VCSH BKN050
     FM241600 18010KT P6SM BKN035
     FM242300 20006KT 5SM -SHRA VCTS BKN035CB PROB30 2423/2502 2SM
      TSRA OVC025CB
     FM250300 19005KT 6SM -SHRA OVC015=

USA.gov is the U.S. government's official web portal to all federal, state and local government web resources and services.